Latest Weather Observations for Omeo

IDV60801

Issued at 12:32 pm EST Wednesday 26 July 2017 (issued every 30 minutes, with the page automatically refreshed every 10 minutes)

About weather observations | Map of weather stations | Latest weather observations for VIC | Other Formats
Station Details ID: 083090 Name: OMEO Lat: -37.10 Lon: 147.60 Height: 689.8 m
Data from the previous 72 hours. | See also: Recent months at Omeo
Date/Time
EST
Temp
°C
App
Temp
°C
Dew
Point
°C
Rel
Hum
%
Delta-T
°C
Wind Press
QNH
hPa
Press
MSL
hPa
Rain since
9am
mm
Dir  Spd
km/h
Gust
km/h
Spd
kts
Gust
kts
26/12:30pm 11.6 6.2 1.3 49 4.5 WNW 19 48 10 26 1015.4 1016.5 0.0
26/12:00pm 11.9 6.1 2.1 51 4.4 WNW 22 41 12 22 1015.6 1016.7 0.0
26/11:30am 10.5 5.9 1.3 53 4.0 NNW 15 50 8 27 1015.8 1016.9 0.0
26/11:28am 10.3 6.0 1.2 53 3.9 NW 13 50 7 27 1015.9 1017.0 0.0
26/11:00am 10.3 7.3 1.7 55 3.8 NW 7 28 4 15 1015.8 1016.9 0.0
26/10:30am 9.8 7.0 2.2 59 3.3 N 6 11 3 6 1015.7 1016.8 0.0
26/10:00am 8.4 5.4 2.2 65 2.7 E 7 11 4 6 1015.3 1016.4 0.0
26/09:30am 7.3 3.9 1.6 67 2.4 NNW 9 13 5 7 1015.0 1016.1 0.0
26/09:00am 6.3 2.1 1.6 72 2.0 NNW 13 20 7 11 1015.0 1016.1 3.4
26/08:30am 6.1 2.2 1.4 72 2.0 N 11 17 6 9 1015.0 1016.1 3.4
26/08:00am 6.1 2.4 -0.2 64 2.5 NNE 9 15 5 8 1014.4 1015.5 3.4
26/07:30am 6.2 1.7 -0.1 64 2.5 N 13 22 7 12 1014.2 1015.3 3.4
26/07:00am 6.7 2.9 -0.7 59 3.0 NNW 9 13 5 7 1013.8 1014.9 3.4
26/06:30am 7.4 3.3 -0.5 57 3.2 NNW 11 20 6 11 1013.3 1014.4 3.4
26/06:00am 7.2 3.6 0.4 62 2.8 NW 9 17 5 9 1012.9 1014.0 3.4
26/05:30am 7.6 2.9 0.8 62 2.8 NNW 15 28 8 15 1012.6 1013.7 3.4
26/05:00am 7.8 3.4 0.3 59 3.1 NNW 13 19 7 10 1012.3 1013.3 3.4
26/04:30am 8.0 3.2 0.3 58 3.2 NNW 15 24 8 13 1012.1 1013.1 3.4
26/04:00am 8.3 3.9 0.1 56 3.4 NW 13 24 7 13 1012.0 1013.0 3.4
26/03:30am 8.4 3.2 0.1 56 3.4 NNW 17 30 9 16 1012.0 1013.0 3.4
26/03:00am 8.6 3.1 0.6 57 3.4 NNW 19 37 10 20 1011.9 1012.9 3.4
26/02:30am 9.1 4.5 1.3 58 3.3 NNW 15 24 8 13 1012.2 1013.2 3.4
26/02:00am 9.1 4.1 1.5 59 3.3 NNW 17 35 9 19 1012.2 1013.2 3.4
26/01:30am 9.1 3.8 1.8 60 3.2 NNW 19 26 10 14 1012.4 1013.5 3.4
26/01:00am 9.1 3.6 2.0 61 3.1 NW 20 28 11 15 1012.3 1013.3 3.4
26/12:30am 8.6 3.8 2.4 65 2.7 NW 17 28 9 15 1012.7 1013.8 3.4
26/12:00am 6.8 3.6 5.3 90 0.7 NNW 11 22 6 12 1013.0 1014.1 3.4
 
Date/Time
EST
Temp
°C
App
Temp
°C
Dew
Point
°C
Rel
Hum
%
Delta-T
°C
Wind Press
QNH
hPa
Press
MSL
hPa
Rain since
9am
mm
Dir  Spd
km/h
Gust
km/h
Spd
kts
Gust
kts
25/11:30pm 6.9 2.1 5.8 93 0.5 NNW 20 28 11 15 1012.9 1014.0 3.4
25/11:00pm 6.8 2.6 5.9 94 0.4 NNW 17 20 9 11 1013.3 1014.4 3.0
25/10:30pm 7.4 3.2 5.9 90 0.7 NNW 17 24 9 13 1013.6 1014.7 3.0
25/10:00pm 7.8 4.5 6.4 91 0.7 NW 13 20 7 11 1014.2 1015.3 3.0
25/09:30pm 8.6 3.9 6.1 84 1.2 N 20 32 11 17 1014.1 1015.2 0.8
25/09:00pm 8.6 4.9 6.2 85 1.1 NNW 15 22 8 12 1014.1 1015.2 0.8
25/08:30pm 9.5 4.4 5.9 78 1.7 NNW 22 33 12 18 1013.9 1015.0 0.2
25/08:04pm 9.6 2.9 5.4 75 2.0 NNW 30 48 16 26 1013.3 1014.4 0.0
25/08:00pm 10.0 2.8 5.2 72 2.3 NNW 32 48 17 26 1013.7 1014.8 0.0
25/07:30pm 11.0 4.5 4.5 64 3.0 NNW 28 46 15 25 1013.8 1014.9 0.0
25/07:00pm 11.1 4.5 4.1 62 3.3 NNW 28 41 15 22 1013.9 1015.0 0.0
25/06:44pm 11.0 4.3 3.8 61 3.3 NNW 28 48 15 26 1013.7 1014.8 0.0
25/06:30pm 10.6 4.3 3.9 63 3.1 NNW 26 39 14 21 1013.8 1014.9 0.0
25/06:00pm 9.6 4.6 3.4 65 2.8 NNW 19 26 10 14 1014.0 1015.1 0.0
25/05:30pm 9.2 3.7 3.8 69 2.5 NNW 22 33 12 18 1014.3 1015.4 0.0
25/05:00pm 9.6 3.4 4.2 69 2.5 NNW 26 35 14 19 1014.0 1015.1 0.0
25/04:30pm 10.2 4.8 4.4 67 2.7 NNW 22 35 12 19 1013.9 1015.0 0.0
25/04:00pm 11.2 6.2 4.4 63 3.2 NNW 20 35 11 19 1014.0 1015.1 0.0
25/03:30pm 11.4 5.6 4.6 63 3.2 N 24 43 13 23 1014.5 1015.6 0.0
25/03:00pm 11.6 6.4 5.3 65 3.0 N 22 33 12 18 1015.3 1016.4 0.0
25/02:30pm 10.2 4.5 4.8 69 2.5 N 24 37 13 20 1015.7 1016.8 0.0
25/02:00pm 9.7 3.2 4.7 71 2.3 N 28 41 15 22 1015.9 1017.0 0.0
25/01:30pm 9.6 2.7 4.6 71 2.3 N 30 41 16 22 1016.3 1017.5 0.0
25/01:00pm 9.8 3.3 4.6 70 2.4 N 28 39 15 21 1017.1 1018.2 0.0
25/12:30pm 10.3 3.5 5.1 70 2.5 N 30 46 16 25 1017.6 1018.8 0.0
25/12:07pm 9.6 3.1 4.6 71 2.3 N 28 46 15 25 1018.2 1019.3 0.0
25/12:00pm 9.6 3.5 4.8 72 2.2 N 26 41 14 22 1018.4 1019.5 0.0
25/11:30am 9.6 3.1 4.8 72 2.2 N 28 43 15 23 1019.1 1020.3 0.0
25/11:00am 9.0 3.4 5.4 78 1.7 N 24 33 13 18 1020.0 1021.2 0.0
25/10:30am 8.7 3.0 5.1 78 1.7 N 24 32 13 17 1020.3 1021.5 0.0
25/10:00am 8.6 3.0 5.4 80 1.5 N 24 35 13 19 1020.3 1021.5 0.0
25/09:30am 9.2 3.6 5.4 77 1.8 NNW 24 35 13 19 1020.3 1021.5 0.0
25/09:00am 7.8 3.1 5.1 83 1.2 N 19 33 10 18 1020.0 1021.2 0.2
25/08:30am 6.2 1.8 4.8 91 0.6 NNW 17 24 9 13 1020.0 1021.2 0.2
25/08:00am 5.0 0.9 4.3 95 0.3 N 15 20 8 11 1020.0 1021.2 0.2
25/07:30am 4.6 0.1 4.0 96 0.3 N 17 26 9 14 1019.8 1021.0 0.2
25/07:00am 4.2 0.0 3.6 96 0.3 NNW 15 22 8 12 1019.7 1020.9 0.2
25/06:30am 4.2 0.8 3.9 98 0.1 NW 11 15 6 8 1019.3 1020.5 0.2
25/06:00am 3.9 -0.7 3.6 98 0.1 NNW 17 24 9 13 1019.0 1020.2 0.2
25/05:30am 3.7 -0.2 3.4 98 0.1 NNW 13 17 7 9 1018.9 1020.1 0.2
25/05:00am 3.6 -0.3 3.3 98 0.1 NNW 13 17 7 9 1019.0 1020.2 0.2
25/04:30am 3.2 -1.6 2.8 97 0.2 N 17 20 9 11 1019.1 1020.3 0.2
25/04:00am 4.0 -0.2 3.6 97 0.2 N 15 20 8 11 1019.2 1020.4 0.2
25/03:30am 3.8 0.3 3.4 97 0.2 N 11 15 6 8 1019.5 1020.7 0.2
25/03:00am 4.2 0.0 3.6 96 0.3 NNW 15 20 8 11 1019.7 1020.9 0.2
25/02:30am 4.1 -0.2 3.4 95 0.3 NNW 15 20 8 11 1019.7 1020.9 0.2
25/02:00am 4.5 -0.2 3.3 92 0.5 N 17 19 9 10 1020.0 1021.2 0.2
25/01:30am 4.7 0.8 3.4 91 0.6 N 13 17 7 9 1019.8 1021.0 0.2
25/01:00am 4.1 0.1 2.9 92 0.5 N 13 17 7 9 1019.9 1021.1 0.2
25/12:30am 4.6 0.6 3.1 90 0.6 NNE 13 17 7 9 1019.7 1020.9 0.2
25/12:00am 3.8 0.5 2.5 91 0.5 N 9 13 5 7 1020.2 1021.4 0.2
 
Date/Time
EST
Temp
°C
App
Temp
°C
Dew
Point
°C
Rel
Hum
%
Delta-T
°C
Wind Press
QNH
hPa
Press
MSL
hPa
Rain since
9am
mm
Dir  Spd
km/h
Gust
km/h
Spd
kts
Gust
kts
24/11:30pm 4.1 0.5 2.9 92 0.5 N 11 15 6 8 1020.3 1021.5 0.2
24/11:00pm 4.2 0.9 2.7 90 0.6 N 9 13 5 7 1020.3 1021.5 0.2
24/10:30pm 4.9 1.3 3.2 89 0.7 NNW 11 17 6 9 1020.2 1021.4 0.2
24/10:00pm 4.8 1.6 3.3 90 0.6 N 9 13 5 7 1020.2 1021.4 0.2
24/09:30pm 4.5 0.9 2.8 89 0.7 N 11 15 6 8 1020.1 1021.3 0.2
24/09:00pm 4.9 1.3 3.2 89 0.7 NNW 11 15 6 8 1020.2 1021.4 0.2
24/08:30pm 5.2 1.3 3.2 87 0.9 N 13 17 7 9 1020.1 1021.3 0.2
24/08:00pm 5.3 1.4 3.2 86 0.9 N 13 17 7 9 1020.0 1021.2 0.2
24/07:30pm 5.3 1.4 3.2 86 0.9 N 13 17 7 9 1019.8 1021.0 0.2
24/07:00pm 5.4 1.4 3.1 85 1.0 NNW 13 15 7 8 1019.7 1020.9 0.2
24/06:30pm 5.6 2.0 2.9 83 1.2 NNW 11 19 6 10 1019.3 1020.5 0.2
24/06:00pm 6.4 2.4 3.0 79 1.5 NNW 13 19 7 10 1019.1 1020.3 0.2
24/05:30pm 7.6 3.3 3.5 75 1.8 N 15 20 8 11 1018.9 1020.1 0.2
24/05:00pm 9.1 4.9 1.5 59 3.3 NW 13 22 7 12 1018.6 1019.8 0.2
24/04:30pm 9.5 6.1 1.9 59 3.3 WNW 9 17 5 9 1018.5 1019.7 0.2
24/04:00pm 9.7 5.0 1.1 55 3.7 WNW 15 22 8 12 1018.6 1019.8 0.2
24/03:30pm 10.1 4.7 1.2 54 3.8 NW 19 24 10 13 1018.4 1019.5 0.2
24/03:00pm 10.5 6.0 0.0 48 4.4 NW 13 24 7 13 1018.4 1019.5 0.2
24/02:30pm 11.4 6.7 0.8 48 4.6 W 15 30 8 16 1018.2 1019.3 0.2
24/02:00pm 11.7 6.2 0.5 46 4.8 NW 19 28 10 15 1018.1 1019.2 0.2
24/01:30pm 11.5 6.3 0.0 45 4.9 WNW 17 28 9 15 1017.9 1019.1 0.2
24/01:00pm 11.8 6.5 -0.7 42 5.2 NW 17 24 9 13 1017.8 1019.0 0.2
24/12:30pm 11.3 5.8 1.8 52 4.2 N 20 30 11 16 1018.1 1019.2 0.0
24/12:00pm 11.3 6.3 1.5 51 4.3 N 17 26 9 14 1018.4 1019.5 0.0
24/11:30am 11.7 7.1 1.6 50 4.5 NW 15 22 8 12 1018.7 1019.9 0.0
24/11:00am 9.7 5.1 3.9 67 2.6 N 17 24 9 13 1019.2 1020.4 0.0
24/10:30am 8.5 4.0 4.3 75 1.9 N 17 24 9 13 1019.4 1020.6 0.0
24/10:00am 6.7 2.6 4.5 86 1.0 N 15 20 8 11 1019.3 1020.5 0.0
24/09:30am 4.5 0.7 3.9 96 0.3 NNW 13 20 7 11 1019.2 1020.4 0.0
24/09:00am 2.7 -1.0 2.6 99 0.0 N 11 17 6 9 1018.9 1020.1 1.4
24/08:30am -0.2 -3.4 -0.3 99 0.0 NW 6 9 3 5 1018.8 1020.0 1.4
24/08:00am -0.4 -3.6 -0.5 99 0.0 WNW 6 7 3 4 1018.7 1019.9 1.4
24/07:30am -0.5 -3.3 -0.6 99 0.0 W 4 7 2 4 1018.3 1019.4 1.4
24/07:00am -0.1 -2.1 -0.2 99 0.0 CALM 0 0 0 0 1017.9 1019.1 1.4
24/06:30am 0.6 -2.1 0.5 99 0.0 W 4 7 2 4 1017.5 1018.7 1.4
24/06:00am 0.5 -1.8 0.4 99 0.0 WNW 2 6 1 3 1017.2 1018.4 1.4
24/05:30am 0.6 -2.6 0.5 99 0.0 NNW 7 9 4 5 1016.9 1018.0 1.4
24/05:00am 1.4 -1.5 1.3 99 0.0 N 6 9 3 5 1016.8 1017.9 1.4
24/04:30am 1.4 -1.7 1.3 99 0.0 WNW 7 11 4 6 1016.4 1017.6 1.4
24/04:00am 2.0 -1.4 1.9 99 0.0 N 9 17 5 9 1016.2 1017.4 1.4
24/03:30am 2.0 -1.4 1.9 99 0.0 NNE 9 13 5 7 1016.1 1017.3 1.4
24/03:00am 1.5 -2.0 1.4 99 0.0 NW 9 11 5 6 1016.1 1017.3 1.4
24/02:30am 1.9 -1.1 1.8 99 0.0 NNW 7 9 4 5 1015.9 1017.0 1.4
24/02:00am 2.3 -0.7 2.2 99 0.0 NW 7 11 4 6 1016.1 1017.3 1.4
24/01:30am 2.2 -2.0 1.9 98 0.1 N 13 20 7 11 1015.7 1016.8 1.4
24/01:00am 2.7 -0.6 2.4 98 0.1 E 9 15 5 8 1015.5 1016.6 1.4
24/12:30am 2.5 -0.3 2.1 97 0.2 NNW 6 9 3 5 1015.5 1016.6 1.4
24/12:00am 2.1 -1.0 1.5 96 0.2 SE 7 13 4 7 1015.4 1016.5 1.4
 
Date/Time
EST
Temp
°C
App
Temp
°C
Dew
Point
°C
Rel
Hum
%
Delta-T
°C
Wind Press
QNH
hPa
Press
MSL
hPa
Rain since
9am
mm
Dir  Spd
km/h
Gust
km/h
Spd
kts
Gust
kts
23/11:30pm 2.8 -0.2 1.9 94 0.4 WNW 7 11 4 6 1015.4 1016.5 1.4
23/11:00pm 3.9 0.7 3.0 94 0.4 N 9 11 5 6 1015.6 1016.7 1.2
23/10:30pm 4.2 1.0 3.3 94 0.4 NW 9 13 5 7 1015.5 1016.6 1.2
23/10:00pm 4.3 1.2 3.7 96 0.3 N 9 11 5 6 1015.4 1016.5 1.2
23/09:30pm 4.8 0.6 3.8 93 0.4 N 15 20 8 11 1015.0 1016.1 1.2
23/09:00pm 5.3 1.5 4.1 92 0.5 NNW 13 20 7 11 1014.8 1016.0 1.2
23/08:30pm 5.4 1.6 4.1 91 0.6 N 13 19 7 10 1014.4 1015.5 1.2
23/08:00pm 5.9 3.3 4.4 90 0.7 N 7 11 4 6 1014.2 1015.3 1.2
23/07:30pm 6.8 3.5 4.3 84 1.1 NW 11 17 6 9 1014.1 1015.2 1.2
23/07:00pm 7.6 3.7 3.5 75 1.8 NNW 13 19 7 10 1013.6 1014.7 0.0
23/06:30pm 7.4 3.8 2.9 73 2.0 NW 11 17 6 9 1013.1 1014.2 0.0
23/06:00pm 8.3 3.2 3.0 69 2.3 NNW 19 28 10 15 1012.5 1013.6 0.0
23/05:30pm 9.5 5.3 1.9 59 3.3 N 13 22 7 12 1012.1 1013.1 0.0
23/05:00pm 9.9 4.3 1.5 56 3.7 N 20 32 11 17 1011.6 1012.7 0.0
23/04:30pm 10.8 5.2 1.4 52 4.1 N 20 30 11 16 1011.3 1012.4 0.0
23/04:00pm 11.2 5.9 2.0 53 4.1 NNW 19 33 10 18 1011.3 1012.4 0.0
23/03:30pm 11.6 6.3 1.8 51 4.3 WNW 19 32 10 17 1011.2 1012.3 0.0
23/03:00pm 11.5 6.1 1.5 50 4.4 NW 19 37 10 20 1011.2 1012.3 0.0
23/02:30pm 12.4 5.3 1.4 47 4.9 WNW 28 46 15 25 1010.9 1011.9 0.0
23/02:00pm 12.5 5.0 1.2 46 5.0 WNW 30 50 16 27 1010.8 1011.8 0.0
23/01:30pm 12.2 4.4 1.5 48 4.7 WNW 32 54 17 29 1010.9 1011.9 0.0
23/01:04pm 12.0 4.9 1.1 47 4.8 WNW 28 54 15 29 1010.8 1011.8 0.0
23/01:00pm 12.1 5.3 1.1 47 4.8 WNW 26 54 14 29 1010.9 1011.9 0.0
23/12:44pm 12.8 6.1 1.5 46 5.0 WNW 26 54 14 29 1010.8 1011.8 0.0

Other Formats:

Comma delimited format used in spreadsheet applications
http://www.bom.gov.au/fwo/IDV60801/IDV60801.94908.axf

JavaScript Object Notation format (JSON) in row-major order
http://www.bom.gov.au/fwo/IDV60801/IDV60801.94908.json